Main page
METAR-TAF:

METAR-TAF

Airports :

Tahlequah Municipal Airport

Tahlequah, Oklahoma, United States

latitude: 35-55-44N, longitude: 095-00-16W, elevation: 872 ft

Current weather observation

The report was made 31 minutes ago, at 03:35 UTC
Wind 8 mph from the South
Temperature 57°F
Humidity 47%
Pressure 30.03 in. Hg
Visibility: 10 miles
Clear sky

METAR: KTQH 230335Z AUTO 19007KT 10SM CLR 14/03 A3003 RMK AO2

Time: 23:06 (04:06 UTC)


TAF: missing

Weather observations and forecasts of more than 4000 airports (METAR and TAF reports).

The available stations are represented by yellow and red dots on the map.

Hover mouse over dot to see the name of the station.

Then click to see weather observations and forecasts.

To change the map : click on the green buttons with a black cross to zoom in, on the green button with a dash to zoom out, or on the green arrows for adjacent maps.


METAR-TAF: